Accueil
METAR-TAF:

METAR-TAF

Aéroports :

Marham, Angleterre

latitude: 52-39N, longitude: 000-34E, altitude: 23 m

Observation

Le bulletin a été fait il y a 22 minutes, à 17:50 UTC
Vent 13 kt de sud-ouest
Température 23°C
Humidité 53%
Pression 1013 hPa
Visibilité 10 km ou plus

METAR: EGYM 151750Z AUTO 23013KT 9999 BKN043/// 23/13 Q1013

Heure: 19:12 (18:12 UTC)

Prévision

Le bulletin a été fait il y a 1 heure et 25 minutes, à 16:47 UTC
Prévision valable du 15 à 18 UTC au 16 à 03 UTC
Vent 12 kt de sud-ouest avec des rafales jusqu'à 22 kt
Visibilité 10 km ou plus
Nuages épars à une hauteur de 4000 ft

TAF: EGYM 151647Z 1518/1603 23012G22KT 9999 SCT040

Observations et prévisions météorologiques de plus de 4000 aéroports (messages METAR et TAF).

Les stations disponibles sont représentées par des disques jaunes et rouges sur la carte.

Passer la souris dessus pour voir le nom de la station.

Cliquer dessus pour voir les observations et prévisions météorologiques.

Pour changer de carte: cliquez sur les boutons verts avec une croix noire pour zoomer, sur le bouton vert avec un tiret pour effectuer un zoom arrière, ou sur les flèches vertes pour les cartes adjacentes.


METAR-TAF: